sensor_id;sensor_type;location;lat;lon;timestamp;pressure;altitude;pressure_sealevel;temperature;humidity
12969;BME280;6549;53.128;8.182;2023-12-20T00:00:44;100898.31;;;5.56;100.00
12969;BME280;6549;53.128;8.182;2023-12-20T00:03:44;100892.63;;;5.49;100.00
12969;BME280;6549;53.128;8.182;2023-12-20T00:06:45;100881.41;;;5.51;100.00
12969;BME280;6549;53.128;8.182;2023-12-20T00:09:45;100873.13;;;5.47;100.00
12969;BME280;6549;53.128;8.182;2023-12-20T00:12:45;100877.63;;;5.55;100.00
12969;BME280;6549;53.128;8.182;2023-12-20T00:15:46;100884.97;;;5.39;100.00
12969;BME280;6549;53.128;8.182;2023-12-20T00:18:46;100882.69;;;5.41;100.00
12969;BME280;6549;53.128;8.182;2023-12-20T00:21:46;100872.25;;;5.43;100.00
12969;BME280;6549;53.128;8.182;2023-12-20T00:24:47;100875.22;;;5.38;100.00
12969;BME280;6549;53.128;8.182;2023-12-20T00:27:47;100875.22;;;5.38;100.00
12969;BME280;6549;53.128;8.182;2023-12-20T00:30:47;100871.34;;;5.39;100.00
12969;BME280;6549;53.128;8.182;2023-12-20T00:33:48;100866.25;;;5.37;100.00
12969;BME280;6549;53.128;8.182;2023-12-20T00:36:48;100863.09;;;5.35;100.00
12969;BME280;6549;53.128;8.182;2023-12-20T00:39:48;100869.06;;;5.41;100.00
12969;BME280;6549;53.128;8.182;2023-12-20T00:42:49;100869.84;;;5.41;100.00
12969;BME280;6549;53.128;8.182;2023-12-20T00:45:49;100870.16;;;5.52;100.00
12969;BME280;6549;53.128;8.182;2023-12-20T00:48:49;100863.56;;;5.53;100.00
12969;BME280;6549;53.128;8.182;2023-12-20T00:51:50;100858.47;;;5.52;100.00
12969;BME280;6549;53.128;8.182;2023-12-20T00:54:52;100861.59;;;5.54;100.00
12969;BME280;6549;53.128;8.182;2023-12-20T00:57:52;100864.88;;;5.59;100.00
12969;BME280;6549;53.128;8.182;2023-12-20T01:00:54;100842.38;;;5.62;100.00
12969;BME280;6549;53.128;8.182;2023-12-20T01:03:54;100841.94;;;5.60;100.00
12969;BME280;6549;53.128;8.182;2023-12-20T01:06:55;100838.72;;;5.70;100.00
12969;BME280;6549;53.128;8.182;2023-12-20T01:09:55;100826.91;;;5.66;100.00
12969;BME280;6549;53.128;8.182;2023-12-20T01:12:56;100831.13;;;5.64;100.00
12969;BME280;6549;53.128;8.182;2023-12-20T01:15:56;100827.59;;;5.63;100.00
12969;BME280;6549;53.128;8.182;2023-12-20T01:18:56;100831.38;;;5.59;100.00
12969;BME280;6549;53.128;8.182;2023-12-20T01:21:57;100837.06;;;5.54;100.00
12969;BME280;6549;53.128;8.182;2023-12-20T01:24:57;100844.63;;;5.44;100.00
12969;BME280;6549;53.128;8.182;2023-12-20T01:27:57;100835.75;;;5.48;100.00
12969;BME280;6549;53.128;8.182;2023-12-20T01:30:58;100832.03;;;5.40;100.00
12969;BME280;6549;53.128;8.182;2023-12-20T01:33:58;100824.56;;;5.37;100.00
12969;BME280;6549;53.128;8.182;2023-12-20T01:36:58;100826.97;;;5.38;100.00
12969;BME280;6549;53.128;8.182;2023-12-20T01:40:00;100821.66;;;5.30;100.00
12969;BME280;6549;53.128;8.182;2023-12-20T01:43:08;100827.53;;;5.32;100.00
12969;BME280;6549;53.128;8.182;2023-12-20T01:46:08;100818.06;;;5.26;100.00
12969;BME280;6549;53.128;8.182;2023-12-20T01:49:09;100798.53;;;5.24;100.00
12969;BME280;6549;53.128;8.182;2023-12-20T01:52:09;100799.41;;;5.28;100.00
12969;BME280;6549;53.128;8.182;2023-12-20T01:55:11;100818.22;;;5.33;100.00
12969;BME280;6549;53.128;8.182;2023-12-20T01:58:15;100802.94;;;5.28;100.00
12969;BME280;6549;53.128;8.182;2023-12-20T02:01:15;100792.13;;;5.32;100.00
12969;BME280;6549;53.128;8.182;2023-12-20T02:04:16;100785.44;;;5.29;100.00
12969;BME280;6549;53.128;8.182;2023-12-20T02:07:18;100784.66;;;5.29;100.00
12969;BME280;6549;53.128;8.182;2023-12-20T02:10:18;100783.84;;;5.28;100.00
12969;BME280;6549;53.128;8.182;2023-12-20T02:13:19;100790.09;;;5.29;100.00
12969;BME280;6549;53.128;8.182;2023-12-20T02:16:19;100780.53;;;5.35;100.00
12969;BME280;6549;53.128;8.182;2023-12-20T02:19:19;100769.28;;;5.36;100.00
12969;BME280;6549;53.128;8.182;2023-12-20T02:22:20;100779.75;;;5.34;100.00
12969;BME280;6549;53.128;8.182;2023-12-20T02:25:21;100782.09;;;5.36;100.00
12969;BME280;6549;53.128;8.182;2023-12-20T02:28:21;100776.22;;;5.34;100.00
12969;BME280;6549;53.128;8.182;2023-12-20T02:31:23;100763.16;;;5.39;100.00
12969;BME280;6549;53.128;8.182;2023-12-20T02:34:23;100769.81;;;5.42;100.00
12969;BME280;6549;53.128;8.182;2023-12-20T02:37:24;100761.03;;;5.49;100.00
12969;BME280;6549;53.128;8.182;2023-12-20T02:40:24;100763.22;;;5.43;100.00
12969;BME280;6549;53.128;8.182;2023-12-20T02:43:24;100759.25;;;5.40;100.00
12969;BME280;6549;53.128;8.182;2023-12-20T02:46:25;100754.19;;;5.39;100.00
12969;BME280;6549;53.128;8.182;2023-12-20T02:49:25;100763.31;;;5.47;100.00
12969;BME280;6549;53.128;8.182;2023-12-20T02:52:25;100756.72;;;5.48;100.00
12969;BME280;6549;53.128;8.182;2023-12-20T02:55:26;100751.81;;;5.53;100.00
12969;BME280;6549;53.128;8.182;2023-12-20T02:58:26;100755.69;;;5.52;100.00
12969;BME280;6549;53.128;8.182;2023-12-20T03:01:27;100748.56;;;5.48;100.00
12969;BME280;6549;53.128;8.182;2023-12-20T03:04:27;100749.78;;;5.50;100.00
12969;BME280;6549;53.128;8.182;2023-12-20T03:07:28;100745.28;;;5.58;100.00
12969;BME280;6549;53.128;8.182;2023-12-20T03:10:28;100748.19;;;5.65;100.00
12969;BME280;6549;53.128;8.182;2023-12-20T03:13:29;100741.78;;;5.57;100.00
12969;BME280;6549;53.128;8.182;2023-12-20T03:16:29;100733.78;;;5.64;100.00
12969;BME280;6549;53.128;8.182;2023-12-20T03:19:31;100733.63;;;5.57;100.00
12969;BME280;6549;53.128;8.182;2023-12-20T03:22:31;100731.75;;;5.61;100.00
12969;BME280;6549;53.128;8.182;2023-12-20T03:25:31;100728.78;;;5.66;100.00
12969;BME280;6549;53.128;8.182;2023-12-20T03:28:32;100728.78;;;5.66;100.00
12969;BME280;6549;53.128;8.182;2023-12-20T03:31:32;100721.03;;;5.68;100.00
12969;BME280;6549;53.128;8.182;2023-12-20T03:34:32;100714.84;;;5.71;100.00
12969;BME280;6549;53.128;8.182;2023-12-20T03:37:33;100714.69;;;5.64;100.00
12969;BME280;6549;53.128;8.182;2023-12-20T03:40:33;100711.63;;;5.66;100.00
12969;BME280;6549;53.128;8.182;2023-12-20T03:43:33;100725.59;;;5.64;100.00
12969;BME280;6549;53.128;8.182;2023-12-20T03:46:34;100702.19;;;5.63;100.00
12969;BME280;6549;53.128;8.182;2023-12-20T03:49:34;100698.16;;;5.73;100.00
12969;BME280;6549;53.128;8.182;2023-12-20T03:52:37;100698.06;;;5.69;100.00
12969;BME280;6549;53.128;8.182;2023-12-20T03:55:37;100693.84;;;5.72;100.00
12969;BME280;6549;53.128;8.182;2023-12-20T03:58:37;100698.50;;;5.71;100.00
12969;BME280;6549;53.128;8.182;2023-12-20T04:01:38;100690.31;;;5.71;100.00
12969;BME280;6549;53.128;8.182;2023-12-20T04:04:38;100690.03;;;5.76;100.00
12969;BME280;6549;53.128;8.182;2023-12-20T04:07:38;100701.03;;;5.80;100.00
12969;BME280;6549;53.128;8.182;2023-12-20T04:10:39;100687.78;;;5.78;100.00
12969;BME280;6549;53.128;8.182;2023-12-20T04:13:39;100685.38;;;5.77;100.00
12969;BME280;6549;53.128;8.182;2023-12-20T04:16:39;100676.53;;;5.64;100.00
12969;BME280;6549;53.128;8.182;2023-12-20T04:19:40;100676.78;;;5.75;100.00
12969;BME280;6549;53.128;8.182;2023-12-20T04:22:40;100679.59;;;5.63;100.00
12969;BME280;6549;53.128;8.182;2023-12-20T04:25:40;100685.50;;;5.65;100.00
12969;BME280;6549;53.128;8.182;2023-12-20T04:28:41;100681.38;;;5.71;100.00
12969;BME280;6549;53.128;8.182;2023-12-20T04:31:41;100673.81;;;5.64;100.00
12969;BME280;6549;53.128;8.182;2023-12-20T04:34:41;100681.19;;;5.64;100.00
12969;BME280;6549;53.128;8.182;2023-12-20T04:37:42;100684.53;;;5.73;100.00
12969;BME280;6549;53.128;8.182;2023-12-20T04:40:42;100683.19;;;5.67;100.00
12969;BME280;6549;53.128;8.182;2023-12-20T04:43:42;100681.38;;;5.71;100.00
12969;BME280;6549;53.128;8.182;2023-12-20T04:46:43;100677.47;;;5.72;100.00
12969;BME280;6549;53.128;8.182;2023-12-20T04:49:43;100681.78;;;5.73;100.00
12969;BME280;6549;53.128;8.182;2023-12-20T04:52:43;100679.50;;;5.75;100.00
12969;BME280;6549;53.128;8.182;2023-12-20T04:55:44;100664.03;;;5.79;100.00
12969;BME280;6549;53.128;8.182;2023-12-20T04:58:44;100663.44;;;5.70;100.00
12969;BME280;6549;53.128;8.182;2023-12-20T05:01:45;100670.47;;;5.71;100.00
12969;BME280;6549;53.128;8.182;2023-12-20T05:04:45;100663.91;;;5.75;100.00
12969;BME280;6549;53.128;8.182;2023-12-20T05:07:46;100663.06;;;5.71;100.00
12969;BME280;6549;53.128;8.182;2023-12-20T05:10:46;100660.31;;;5.71;100.00
12969;BME280;6549;53.128;8.182;2023-12-20T05:13:46;100664.13;;;5.67;100.00
12969;BME280;6549;53.128;8.182;2023-12-20T05:16:47;100650.06;;;5.65;100.00
12969;BME280;6549;53.128;8.182;2023-12-20T05:19:47;100648.94;;;5.66;100.00
12969;BME280;6549;53.128;8.182;2023-12-20T05:22:47;100650.84;;;5.65;100.00
12969;BME280;6549;53.128;8.182;2023-12-20T05:25:48;100657.72;;;5.75;100.00
12969;BME280;6549;53.128;8.182;2023-12-20T05:28:49;100662.09;;;5.79;100.00
12969;BME280;6549;53.128;8.182;2023-12-20T05:31:49;100658.91;;;5.77;100.00
12969;BME280;6549;53.128;8.182;2023-12-20T05:34:49;100643.44;;;5.81;100.00
12969;BME280;6549;53.128;8.182;2023-12-20T05:37:50;100646.59;;;5.83;100.00
12969;BME280;6549;53.128;8.182;2023-12-20T05:40:50;100646.78;;;5.91;100.00
12969;BME280;6549;53.128;8.182;2023-12-20T05:43:50;100653.75;;;5.88;100.00
12969;BME280;6549;53.128;8.182;2023-12-20T05:46:50;100640.44;;;5.86;100.00
12969;BME280;6549;53.128;8.182;2023-12-20T05:49:51;100647.22;;;5.93;100.00
12969;BME280;6549;53.128;8.182;2023-12-20T05:52:51;100647.91;;;5.90;100.00
12969;BME280;6549;53.128;8.182;2023-12-20T05:55:51;100636.59;;;5.88;100.00
12969;BME280;6549;53.128;8.182;2023-12-20T05:58:52;100632.41;;;5.94;100.00
12969;BME280;6549;53.128;8.182;2023-12-20T06:01:52;100625.69;;;5.88;100.00
12969;BME280;6549;53.128;8.182;2023-12-20T06:04:53;100631.94;;;5.88;100.00
12969;BME280;6549;53.128;8.182;2023-12-20T06:07:53;100633.13;;;5.91;100.00
12969;BME280;6549;53.128;8.182;2023-12-20T06:10:54;100635.59;;;5.80;100.00
12969;BME280;6549;53.128;8.182;2023-12-20T06:13:55;100645.09;;;5.86;100.00
12969;BME280;6549;53.128;8.182;2023-12-20T06:16:55;100634.28;;;5.90;100.00
12969;BME280;6549;53.128;8.182;2023-12-20T06:19:55;100615.56;;;5.88;100.00
12969;BME280;6549;53.128;8.182;2023-12-20T06:22:55;100611.56;;;5.85;100.00
12969;BME280;6549;53.128;8.182;2023-12-20T06:25:56;100614.03;;;5.91;100.00
12969;BME280;6549;53.128;8.182;2023-12-20T06:28:56;100608.94;;;5.89;100.00
12969;BME280;6549;53.128;8.182;2023-12-20T06:31:56;100604.66;;;5.88;100.00
12969;BME280;6549;53.128;8.182;2023-12-20T06:34:57;100599.56;;;5.86;100.00
12969;BME280;6549;53.128;8.182;2023-12-20T06:37:57;100595.69;;;5.88;100.00
12969;BME280;6549;53.128;8.182;2023-12-20T06:40:58;100595.69;;;5.88;100.00
12969;BME280;6549;53.128;8.182;2023-12-20T06:43:58;100599.56;;;5.86;100.00
12969;BME280;6549;53.128;8.182;2023-12-20T06:46:59;100584.50;;;5.93;100.00
12969;BME280;6549;53.128;8.182;2023-12-20T06:49:59;100577.53;;;5.95;100.00
12969;BME280;6549;53.128;8.182;2023-12-20T06:53:00;100578.31;;;5.96;100.00
12969;BME280;6549;53.128;8.182;2023-12-20T06:56:06;100577.59;;;5.99;100.00
12969;BME280;6549;53.128;8.182;2023-12-20T06:59:07;100584.63;;;6.00;100.00
12969;BME280;6549;53.128;8.182;2023-12-20T07:02:08;100582.75;;;6.04;100.00
12969;BME280;6549;53.128;8.182;2023-12-20T07:05:08;100577.31;;;6.04;100.00
12969;BME280;6549;53.128;8.182;2023-12-20T07:08:09;100578.81;;;6.01;100.00
12969;BME280;6549;53.128;8.182;2023-12-20T07:11:10;100575.66;;;5.99;100.00
12969;BME280;6549;53.128;8.182;2023-12-20T07:14:10;100574.22;;;6.05;100.00
12969;BME280;6549;53.128;8.182;2023-12-20T07:17:11;100576.91;;;6.02;100.00
12969;BME280;6549;53.128;8.182;2023-12-20T07:20:13;100571.44;;;6.02;100.00
12969;BME280;6549;53.128;8.182;2023-12-20T07:23:13;100564.41;;;6.01;100.00
12969;BME280;6549;53.128;8.182;2023-12-20T07:26:15;100573.78;;;6.03;100.00
12969;BME280;6549;53.128;8.182;2023-12-20T07:29:15;100565.66;;;6.07;100.00
12969;BME280;6549;53.128;8.182;2023-12-20T07:32:16;100555.94;;;6.06;100.00
12969;BME280;6549;53.128;8.182;2023-12-20T07:35:16;100556.34;;;6.08;100.00
12969;BME280;6549;53.128;8.182;2023-12-20T07:38:17;100556.78;;;6.10;100.00
12969;BME280;6549;53.128;8.182;2023-12-20T07:41:17;100559.94;;;6.12;100.00
12969;BME280;6549;53.128;8.182;2023-12-20T07:44:19;100558.44;;;6.14;100.00
12969;BME280;6549;53.128;8.182;2023-12-20T07:47:19;100550.31;;;6.18;100.00
12969;BME280;6549;53.128;8.182;2023-12-20T07:50:21;100546.50;;;6.22;100.00
12969;BME280;6549;53.128;8.182;2023-12-20T07:53:22;100538.38;;;6.26;100.00
12969;BME280;6549;53.128;8.182;2023-12-20T07:56:22;100530.53;;;6.24;100.00
12969;BME280;6549;53.128;8.182;2023-12-20T07:59:22;100543.84;;;6.26;100.00
12969;BME280;6549;53.128;8.182;2023-12-20T08:02:22;100550.16;;;6.30;100.00
12969;BME280;6549;53.128;8.182;2023-12-20T08:05:23;100542.31;;;6.28;100.00
12969;BME280;6549;53.128;8.182;2023-12-20T08:08:23;100548.56;;;6.29;100.00
12969;BME280;6549;53.128;8.182;2023-12-20T08:11:23;100543.97;;;6.33;100.00
12969;BME280;6549;53.128;8.182;2023-12-20T08:14:24;100538.81;;;6.28;100.00
12969;BME280;6549;53.128;8.182;2023-12-20T08:17:24;100534.50;;;6.27;100.00
12969;BME280;6549;53.128;8.182;2023-12-20T08:20:24;100529.06;;;6.27;100.00
12969;BME280;6549;53.128;8.182;2023-12-20T08:23:25;100536.84;;;6.28;100.00
12969;BME280;6549;53.128;8.182;2023-12-20T08:26:25;100530.69;;;6.31;100.00
12969;BME280;6549;53.128;8.182;2023-12-20T08:29:26;100523.59;;;6.27;100.00
12969;BME280;6549;53.128;8.182;2023-12-20T08:32:26;100524.00;;;6.29;100.00
12969;BME280;6549;53.128;8.182;2023-12-20T08:35:27;100515.03;;;6.28;100.00
12969;BME280;6549;53.128;8.182;2023-12-20T08:38:27;100532.34;;;6.36;100.00
12969;BME280;6549;53.128;8.182;2023-12-20T08:41:27;100543.25;;;6.36;100.00
12969;BME280;6549;53.128;8.182;2023-12-20T08:44:28;100500.97;;;6.26;100.00
12969;BME280;6549;53.128;8.182;2023-12-20T08:47:28;100511.88;;;6.26;100.00
12969;BME280;6549;53.128;8.182;2023-12-20T08:50:29;100506.53;;;6.33;100.00
12969;BME280;6549;53.128;8.182;2023-12-20T08:53:29;100519.19;;;6.42;100.00
12969;BME280;6549;53.128;8.182;2023-12-20T08:56:29;100517.56;;;6.37;100.00
12969;BME280;6549;53.128;8.182;2023-12-20T08:59:30;100513.22;;;6.36;100.00
12969;BME280;6549;53.128;8.182;2023-12-20T09:02:30;100508.47;;;6.33;100.00
12969;BME280;6549;53.128;8.182;2023-12-20T09:05:31;100509.78;;;6.39;100.00
12969;BME280;6549;53.128;8.182;2023-12-20T09:08:31;100495.34;;;6.39;100.00
12969;BME280;6549;53.128;8.182;2023-12-20T09:11:32;100502.56;;;6.50;100.00
12969;BME280;6549;53.128;8.182;2023-12-20T09:14:32;100483.56;;;6.57;100.00
12969;BME280;6549;53.128;8.182;2023-12-20T09:17:33;100503.88;;;6.60;100.00
12969;BME280;6549;53.128;8.182;2023-12-20T09:20:33;100551.53;;;6.62;100.00
12969;BME280;6549;53.128;8.182;2023-12-20T09:23:34;100604.88;;;6.37;100.00
12969;BME280;6549;53.128;8.182;2023-12-20T09:26:34;100604.06;;;5.63;100.00
12969;BME280;6549;53.128;8.182;2023-12-20T09:29:35;100604.25;;;5.04;100.00
12969;BME280;6549;53.128;8.182;2023-12-20T09:32:35;100600.63;;;5.00;100.00
12969;BME280;6549;53.128;8.182;2023-12-20T09:35:36;100592.78;;;4.67;100.00
12969;BME280;6549;53.128;8.182;2023-12-20T09:38:36;100598.81;;;4.61;100.00
12969;BME280;6549;53.128;8.182;2023-12-20T09:41:37;100608.25;;;4.63;100.00
12969;BME280;6549;53.128;8.182;2023-12-20T09:44:42;100605.44;;;4.60;100.00
12969;BME280;6549;53.128;8.182;2023-12-20T09:47:44;100611.31;;;4.62;100.00
12969;BME280;6549;53.128;8.182;2023-12-20T09:50:45;100601.66;;;4.64;100.00
12969;BME280;6549;53.128;8.182;2023-12-20T09:53:47;100598.88;;;4.76;100.00
12969;BME280;6549;53.128;8.182;2023-12-20T09:56:49;100584.28;;;4.84;100.00
12969;BME280;6549;53.128;8.182;2023-12-20T09:59:50;100592.91;;;4.86;100.00
12969;BME280;6549;53.128;8.182;2023-12-20T10:02:58;100584.28;;;4.84;100.00
12969;BME280;6549;53.128;8.182;2023-12-20T10:06:00;100585.44;;;4.83;100.00
12969;BME280;6549;53.128;8.182;2023-12-20T10:09:01;100593.78;;;4.90;100.00
12969;BME280;6549;53.128;8.182;2023-12-20T10:12:01;100603.19;;;4.93;100.00
12969;BME280;6549;53.128;8.182;2023-12-20T10:15:02;100617.31;;;4.98;100.00
12969;BME280;6549;53.128;8.182;2023-12-20T10:18:03;100606.69;;;5.09;100.00
12969;BME280;6549;53.128;8.182;2023-12-20T10:21:04;100622.75;;;5.14;100.00
12969;BME280;6549;53.128;8.182;2023-12-20T10:24:04;100615.38;;;5.15;100.00
12969;BME280;6549;53.128;8.182;2023-12-20T10:27:06;100628.59;;;5.13;100.00
12969;BME280;6549;53.128;8.182;2023-12-20T10:30:08;100612.06;;;5.21;100.00
12969;BME280;6549;53.128;8.182;2023-12-20T10:33:08;100615.72;;;5.29;100.00
12969;BME280;6549;53.128;8.182;2023-12-20T10:36:09;100590.75;;;5.27;100.00
12969;BME280;6549;53.128;8.182;2023-12-20T10:39:10;100599.72;;;5.43;100.00
12969;BME280;6549;53.128;8.182;2023-12-20T10:42:13;100596.72;;;5.48;100.00
12969;BME280;6549;53.128;8.182;2023-12-20T10:45:13;100596.34;;;5.65;100.00
12969;BME280;6549;53.128;8.182;2023-12-20T10:48:16;100598.94;;;5.77;100.00
12969;BME280;6549;53.128;8.182;2023-12-20T10:51:17;100597.63;;;5.87;100.00
12969;BME280;6549;53.128;8.182;2023-12-20T10:54:18;100595.31;;;5.89;100.00
12969;BME280;6549;53.128;8.182;2023-12-20T10:57:18;100598.19;;;5.96;100.00
12969;BME280;6549;53.128;8.182;2023-12-20T11:00:21;100573.72;;;6.00;100.00
12969;BME280;6549;53.128;8.182;2023-12-20T11:03:23;100581.28;;;6.06;100.00
12969;BME280;6549;53.128;8.182;2023-12-20T11:06:51;100575.81;;;6.06;100.00
12969;BME280;6549;53.128;8.182;2023-12-20T11:09:59;100576.75;;;6.14;100.00
12969;BME280;6549;53.128;8.182;2023-12-20T11:13:16;100575.66;;;6.18;100.00
12969;BME280;6549;53.128;8.182;2023-12-20T11:16:17;100581.63;;;6.24;100.00
12969;BME280;6549;53.128;8.182;2023-12-20T11:19:18;100576.75;;;6.14;100.00
12969;BME280;6549;53.128;8.182;2023-12-20T11:22:22;100569.06;;;6.19;100.00
12969;BME280;6549;53.128;8.182;2023-12-20T11:25:22;100563.50;;;6.16;100.00
12969;BME280;6549;53.128;8.182;2023-12-20T11:28:25;100567.25;;;6.27;100.00
12969;BME280;6549;53.128;8.182;2023-12-20T11:31:26;100563.78;;;6.30;100.00
12969;BME280;6549;53.128;8.182;2023-12-20T11:34:28;100553.78;;;6.38;100.00
12969;BME280;6549;53.128;8.182;2023-12-20T11:37:35;100561.50;;;6.32;100.00
12969;BME280;6549;53.128;8.182;2023-12-20T11:40:36;100560.22;;;6.26;100.00
12969;BME280;6549;53.128;8.182;2023-12-20T11:43:38;100571.69;;;6.35;100.00
12969;BME280;6549;53.128;8.182;2023-12-20T11:46:38;100566.66;;;6.37;100.00
12969;BME280;6549;53.128;8.182;2023-12-20T11:49:39;100554.59;;;6.38;100.00
12969;BME280;6549;53.128;8.182;2023-12-20T11:52:40;100551.03;;;6.57;100.00
12969;BME280;6549;53.128;8.182;2023-12-20T11:55:40;100553.69;;;6.53;100.00
12969;BME280;6549;53.128;8.182;2023-12-20T11:58:41;100545.34;;;6.65;100.00
12969;BME280;6549;53.128;8.182;2023-12-20T12:01:48;100544.59;;;6.68;100.00
12969;BME280;6549;53.128;8.182;2023-12-20T12:04:50;100553.28;;;6.74;100.00
12969;BME280;6549;53.128;8.182;2023-12-20T12:07:53;100548.81;;;6.85;100.00
12969;BME280;6549;53.128;8.182;2023-12-20T12:10:54;100548.41;;;6.87;100.00
12969;BME280;6549;53.128;8.182;2023-12-20T12:13:54;100551.69;;;6.96;100.00
12969;BME280;6549;53.128;8.182;2023-12-20T12:16:55;100554.56;;;7.03;100.00
12969;BME280;6549;53.128;8.182;2023-12-20T12:20:03;100547.09;;;7.26;100.00
12969;BME280;6549;53.128;8.182;2023-12-20T12:23:05;100547.94;;;7.30;100.00
12969;BME280;6549;53.128;8.182;2023-12-20T12:26:06;100535.47;;;7.33;100.00
12969;BME280;6549;53.128;8.182;2023-12-20T12:29:09;100533.00;;;7.24;100.00
12969;BME280;6549;53.128;8.182;2023-12-20T12:32:10;100537.94;;;7.15;100.00
12969;BME280;6549;53.128;8.182;2023-12-20T12:35:10;100551.00;;;7.25;100.00
12969;BME280;6549;53.128;8.182;2023-12-20T12:38:11;100561.09;;;7.21;100.00
12969;BME280;6549;53.128;8.182;2023-12-20T12:41:13;100559.38;;;7.13;100.00
12969;BME280;6549;53.128;8.182;2023-12-20T12:44:13;100554.75;;;7.17;100.00
12969;BME280;6549;53.128;8.182;2023-12-20T12:47:14;100553.16;;;7.12;100.00
12969;BME280;6549;53.128;8.182;2023-12-20T12:50:15;100558.47;;;7.05;100.00
12969;BME280;6549;53.128;8.182;2023-12-20T12:53:16;100561.66;;;7.07;100.00
12969;BME280;6549;53.128;8.182;2023-12-20T12:56:16;100546.41;;;7.06;100.00
12969;BME280;6549;53.128;8.182;2023-12-20T12:59:16;100541.31;;;7.05;100.00
12969;BME280;6549;53.128;8.182;2023-12-20T13:02:17;100532.25;;;7.01;100.00
12969;BME280;6549;53.128;8.182;2023-12-20T13:05:17;100534.09;;;6.93;100.00
12969;BME280;6549;53.128;8.182;2023-12-20T13:08:18;100536.53;;;6.98;100.00
12969;BME280;6549;53.128;8.182;2023-12-20T13:11:18;100545.88;;;6.97;100.00
12969;BME280;6549;53.128;8.182;2023-12-20T13:14:18;100558.06;;;7.03;100.00
12969;BME280;6549;53.128;8.182;2023-12-20T13:17:19;100553.22;;;6.93;100.00
12969;BME280;6549;53.128;8.182;2023-12-20T13:20:19;100545.63;;;6.83;100.00
12969;BME280;6549;53.128;8.182;2023-12-20T13:23:20;100545.94;;;6.78;100.00
12969;BME280;6549;53.128;8.182;2023-12-20T13:26:20;100556.00;;;6.74;100.00
12969;BME280;6549;53.128;8.182;2023-12-20T13:29:20;100551.63;;;6.69;100.00
12969;BME280;6549;53.128;8.182;2023-12-20T13:32:21;100550.06;;;6.68;100.00
12969;BME280;6549;53.128;8.182;2023-12-20T13:35:21;100550.78;;;6.65;100.00
12969;BME280;6549;53.128;8.182;2023-12-20T13:38:21;100550.38;;;6.63;100.00
12969;BME280;6549;53.128;8.182;2023-12-20T13:41:22;100547.72;;;6.67;100.00
12969;BME280;6549;53.128;8.182;2023-12-20T13:44:22;100551.47;;;6.59;100.00
12969;BME280;6549;53.128;8.182;2023-12-20T13:47:22;100538.91;;;6.54;100.00
12969;BME280;6549;53.128;8.182;2023-12-20T13:50:23;100542.00;;;6.53;100.00
12969;BME280;6549;53.128;8.182;2023-12-20T13:53:23;100531.03;;;6.49;100.00
12969;BME280;6549;53.128;8.182;2023-12-20T13:56:23;100525.91;;;6.48;100.00
12969;BME280;6549;53.128;8.182;2023-12-20T13:59:24;100525.56;;;6.49;100.00
12969;BME280;6549;53.128;8.182;2023-12-20T14:02:24;100527.25;;;6.57;100.00
12969;BME280;6549;53.128;8.182;2023-12-20T14:05:26;100525.25;;;6.54;100.00
12969;BME280;6549;53.128;8.182;2023-12-20T14:08:28;100507.69;;;6.55;100.00
12969;BME280;6549;53.128;8.182;2023-12-20T14:11:28;100520.94;;;6.53;100.00
12969;BME280;6549;53.128;8.182;2023-12-20T14:14:29;100519.41;;;6.56;100.00
12969;BME280;6549;53.128;8.182;2023-12-20T14:17:30;100521.69;;;6.50;100.00
12969;BME280;6549;53.128;8.182;2023-12-20T14:20:32;100512.47;;;6.58;100.00
12969;BME280;6549;53.128;8.182;2023-12-20T14:23:34;100513.78;;;6.45;100.00
12969;BME280;6549;53.128;8.182;2023-12-20T14:26:35;100523.97;;;6.48;100.00
12969;BME280;6549;53.128;8.182;2023-12-20T14:29:37;100513.50;;;6.50;100.00
12969;BME280;6549;53.128;8.182;2023-12-20T14:32:37;100511.53;;;6.51;100.00
12969;BME280;6549;53.128;8.182;2023-12-20T14:35:38;100519.25;;;6.45;100.00
12969;BME280;6549;53.128;8.182;2023-12-20T14:38:38;100525.56;;;6.49;100.00
12969;BME280;6549;53.128;8.182;2023-12-20T14:41:39;100519.00;;;6.54;100.00
12969;BME280;6549;53.128;8.182;2023-12-20T14:44:43;100514.63;;;6.49;100.00
12969;BME280;6549;53.128;8.182;2023-12-20T14:47:43;100516.97;;;6.51;100.00
12969;BME280;6549;53.128;8.182;2023-12-20T14:50:44;100513.34;;;6.43;100.00
12969;BME280;6549;53.128;8.182;2023-12-20T14:53:44;100511.16;;;6.52;100.00
12969;BME280;6549;53.128;8.182;2023-12-20T14:56:47;100508.16;;;6.57;100.00
12969;BME280;6549;53.128;8.182;2023-12-20T14:59:47;100502.97;;;6.52;100.00
12969;BME280;6549;53.128;8.182;2023-12-20T15:02:48;100514.63;;;6.49;100.00
12969;BME280;6549;53.128;8.182;2023-12-20T15:05:49;100514.09;;;6.40;100.00
12969;BME280;6549;53.128;8.182;2023-12-20T15:08:50;100516.94;;;6.47;100.00
12969;BME280;6549;53.128;8.182;2023-12-20T15:11:52;100517.97;;;6.39;100.00
12969;BME280;6549;53.128;8.182;2023-12-20T15:14:52;100514.94;;;6.44;100.00
12969;BME280;6549;53.128;8.182;2023-12-20T15:17:52;100503.16;;;6.40;100.00
12969;BME280;6549;53.128;8.182;2023-12-20T15:20:53;100482.41;;;6.36;100.00
12969;BME280;6549;53.128;8.182;2023-12-20T15:23:53;100491.81;;;6.38;100.00
12969;BME280;6549;53.128;8.182;2023-12-20T15:26:53;100493.69;;;6.34;100.00
12969;BME280;6549;53.128;8.182;2023-12-20T15:29:54;100505.34;;;6.31;100.00
12969;BME280;6549;53.128;8.182;2023-12-20T15:32:56;100493.06;;;6.21;100.00
12969;BME280;6549;53.128;8.182;2023-12-20T15:35:57;100507.63;;;6.29;100.00
12969;BME280;6549;53.128;8.182;2023-12-20T15:38:57;100506.53;;;6.33;100.00
12969;BME280;6549;53.128;8.182;2023-12-20T15:41:57;100510.81;;;6.31;100.00
12969;BME280;6549;53.128;8.182;2023-12-20T15:44:58;100512.78;;;6.34;100.00
12969;BME280;6549;53.128;8.182;2023-12-20T15:47:58;100508.06;;;6.31;100.00
12969;BME280;6549;53.128;8.182;2023-12-20T15:50:59;100506.50;;;6.30;100.00
12969;BME280;6549;53.128;8.182;2023-12-20T15:53:59;100508.31;;;6.22;100.00
12969;BME280;6549;53.128;8.182;2023-12-20T15:57:05;100511.19;;;6.10;100.00